Time;durP1;ratioP1;P1;durP2;ratioP2;P2;SDS_P1;SDS_P2;PMS_P1;PMS_P2;Temp;Humidity;BMP_temperature;BMP_pressure;BME280_temperature;BME280_humidity;BME280_pressure;Samples;Min_cycle;Max_cycle;Signal;HPM_P1;HPM_P2
2023/08/25 00:00:37;;;;;;;14.02;10.48;;;19.90;99.90;;;;;;4999943;28;20030;-67
2023/08/25 00:03:03;;;;;;;15.15;10.90;;;19.80;99.90;;;;;;4996401;28;20124;-67
2023/08/25 00:05:29;;;;;;;13.63;11.13;;;19.80;99.90;;;;;;4987268;28;20050;-67
2023/08/25 00:07:55;;;;;;;12.82;10.35;;;19.80;99.90;;;;;;4996968;28;20064;-67
2023/08/25 00:10:22;;;;;;;14.98;10.88;;;19.70;99.90;;;;;;4992106;28;20069;-67
2023/08/25 00:12:49;;;;;;;13.35;11.52;;;19.70;99.90;;;;;;5020307;28;20093;-67
2023/08/25 00:15:14;;;;;;;14.35;11.52;;;19.70;99.90;;;;;;5004766;28;20454;-67
2023/08/25 00:17:40;;;;;;;14.95;11.18;;;19.70;99.90;;;;;;4987847;28;20487;-67
2023/08/25 00:20:10;;;;;;;13.25;10.68;;;19.70;99.90;;;;;;4988394;28;20488;-67
2023/08/25 00:22:36;;;;;;;13.38;11.10;;;19.70;99.90;;;;;;4988863;28;20484;-67
2023/08/25 00:25:03;;;;;;;13.70;11.65;;;19.70;99.90;;;;;;5027497;28;20038;-67
2023/08/25 00:27:28;;;;;;;14.85;11.75;;;19.70;99.90;;;;;;4991884;28;20388;-67
2023/08/25 00:29:54;;;;;;;14.60;11.60;;;19.60;99.90;;;;;;4990966;28;20085;-67
2023/08/25 00:32:20;;;;;;;16.25;12.02;;;19.60;99.90;;;;;;5009844;28;20100;-67
2023/08/25 00:34:45;;;;;;;14.70;11.48;;;19.60;99.90;;;;;;4986446;28;20030;-67
2023/08/25 00:37:11;;;;;;;15.68;11.35;;;19.50;99.90;;;;;;4990128;28;20085;-67
2023/08/25 00:39:38;;;;;;;15.50;11.88;;;19.40;99.90;;;;;;5005367;28;20069;-67
2023/08/25 00:42:04;;;;;;;14.77;12.32;;;19.50;99.90;;;;;;4993359;28;20438;-67
2023/08/25 00:44:30;;;;;;;16.58;12.38;;;19.40;99.90;;;;;;5038590;28;20065;-67
2023/08/25 00:46:56;;;;;;;17.48;12.50;;;19.40;99.90;;;;;;5028527;28;20492;-67
2023/08/25 00:49:23;;;;;;;15.70;12.25;;;19.30;99.90;;;;;;5006891;28;20045;-67
2023/08/25 00:51:51;;;;;;;17.33;12.88;;;19.30;99.90;;;;;;5010362;28;20042;-67
2023/08/25 00:54:23;;;;;;;16.92;12.80;;;19.30;99.90;;;;;;4999864;28;20042;-67
2023/08/25 00:56:50;;;;;;;16.63;13.90;;;19.30;99.90;;;;;;5035272;28;20503;-67
2023/08/25 00:59:17;;;;;;;16.48;12.90;;;19.30;99.90;;;;;;5018377;28;20073;-67
2023/08/25 01:01:44;;;;;;;18.25;13.15;;;19.30;99.90;;;;;;4994732;28;20050;-67
2023/08/25 01:04:10;;;;;;;20.48;13.00;;;19.30;99.90;;;;;;5003979;28;20504;-68
2023/08/25 01:06:37;;;;;;;17.48;13.30;;;19.30;99.90;;;;;;4996856;28;20156;-67
2023/08/25 01:09:04;;;;;;;16.65;13.10;;;19.30;99.90;;;;;;4994107;28;20040;-67
2023/08/25 01:11:40;;;;;;;19.85;13.65;;;19.30;99.90;;;;;;4996645;28;20049;-67
2023/08/25 01:14:09;;;;;;;17.27;13.35;;;19.30;99.90;;;;;;4994874;28;20038;-67
2023/08/25 01:16:50;;;;;;;16.48;13.40;;;19.30;99.90;;;;;;4992810;28;20038;-67
2023/08/25 01:19:40;;;;;;;16.95;13.45;;;19.30;99.90;;;;;;4997515;28;20049;-67
2023/08/25 01:22:13;;;;;;;16.83;13.20;;;19.30;99.90;;;;;;4997609;28;20044;-67
2023/08/25 01:24:41;;;;;;;17.60;14.07;;;19.30;99.90;;;;;;4988351;28;20404;-67
2023/08/25 01:27:09;;;;;;;16.27;12.85;;;19.30;99.90;;;;;;4996468;28;20411;-67
2023/08/25 01:29:35;;;;;;;18.25;13.45;;;19.30;99.90;;;;;;4996957;28;20277;-67
2023/08/25 01:32:02;;;;;;;18.25;13.63;;;19.40;99.90;;;;;;4992315;28;20038;-68
2023/08/25 01:34:28;;;;;;;17.95;13.52;;;19.40;99.90;;;;;;4986419;28;20439;-68
2023/08/25 01:37:18;;;;;;;18.20;14.00;;;19.30;99.90;;;;;;4989705;28;20096;-67
2023/08/25 01:39:46;;;;;;;17.92;14.07;;;19.30;99.90;;;;;;4994775;28;20034;-67
2023/08/25 01:42:15;;;;;;;19.45;14.07;;;19.40;99.90;;;;;;4991820;28;20061;-67
2023/08/25 01:44:42;;;;;;;18.00;14.20;;;19.40;99.90;;;;;;4997189;28;20440;-67
2023/08/25 01:47:10;;;;;;;19.25;14.32;;;19.40;99.90;;;;;;4983575;28;20041;-67
2023/08/25 01:49:37;;;;;;;21.45;13.93;;;19.40;99.90;;;;;;4986470;28;20038;-67
2023/08/25 01:52:04;;;;;;;19.80;13.93;;;19.40;99.90;;;;;;5020365;28;20042;-67
2023/08/25 01:54:30;;;;;;;18.38;14.15;;;19.40;99.90;;;;;;4993982;28;20109;-67
2023/08/25 01:56:55;;;;;;;20.65;14.85;;;19.40;99.90;;;;;;5004926;28;20052;-68
2023/08/25 01:59:21;;;;;;;18.35;14.00;;;19.40;99.90;;;;;;5014579;28;20046;-67
2023/08/25 02:01:47;;;;;;;19.63;14.68;;;19.40;99.90;;;;;;5009307;28;20037;-67
2023/08/25 02:04:13;;;;;;;20.98;15.05;;;19.40;99.90;;;;;;4955425;28;20046;-67
2023/08/25 02:06:38;;;;;;;19.70;14.93;;;19.40;99.90;;;;;;4994949;28;20369;-67
2023/08/25 02:09:04;;;;;;;19.80;14.80;;;19.40;99.90;;;;;;4986313;28;21629;-67
2023/08/25 02:11:30;;;;;;;19.73;14.85;;;19.40;99.90;;;;;;5022380;28;20049;-68
2023/08/25 02:13:55;;;;;;;21.70;16.45;;;19.30;99.90;;;;;;4988549;28;20034;-67
2023/08/25 02:16:21;;;;;;;22.10;16.67;;;19.30;99.90;;;;;;4994051;28;20121;-67
2023/08/25 02:18:47;;;;;;;21.77;16.20;;;19.20;99.90;;;;;;4999504;28;20046;-67
2023/08/25 02:21:13;;;;;;;19.92;15.10;;;19.20;99.90;;;;;;4990908;28;20042;-67
2023/08/25 02:23:40;;;;;;;26.77;17.00;;;19.30;99.90;;;;;;4999231;28;20038;-67
2023/08/25 02:26:05;;;;;;;22.63;16.40;;;19.20;99.90;;;;;;5010774;28;20403;-67
2023/08/25 02:28:31;;;;;;;23.92;16.77;;;19.30;99.90;;;;;;4999293;28;20044;-67
2023/08/25 02:30:57;;;;;;;24.75;17.83;;;19.30;99.90;;;;;;5000809;28;20046;-67
2023/08/25 02:33:22;;;;;;;26.73;17.38;;;19.30;99.90;;;;;;5000948;28;20069;-67
2023/08/25 02:35:48;;;;;;;22.15;17.42;;;19.30;99.90;;;;;;4998445;28;20084;-67
2023/08/25 02:38:14;;;;;;;22.52;17.33;;;19.30;99.90;;;;;;4994135;28;20088;-67
2023/08/25 02:40:40;;;;;;;24.02;17.35;;;19.20;99.90;;;;;;5025257;28;20030;-67
2023/08/25 02:43:07;;;;;;;28.45;18.27;;;19.30;99.90;;;;;;5002205;28;20044;-67
2023/08/25 02:45:36;;;;;;;22.75;17.27;;;19.20;99.90;;;;;;4983390;28;20034;-67
2023/08/25 02:48:02;;;;;;;22.17;15.80;;;19.30;99.90;;;;;;4988201;28;20045;-67
2023/08/25 02:50:28;;;;;;;23.05;17.05;;;19.20;99.90;;;;;;5007580;28;20042;-67
2023/08/25 02:52:54;;;;;;;28.58;18.05;;;19.20;99.90;;;;;;4974544;28;20505;-67
2023/08/25 02:55:21;;;;;;;26.10;19.55;;;19.20;99.90;;;;;;4999136;28;20050;-67
2023/08/25 02:57:48;;;;;;;24.83;19.20;;;19.10;99.90;;;;;;5011180;28;20076;-67
2023/08/25 03:00:16;;;;;;;26.35;18.42;;;19.10;99.90;;;;;;4985850;28;20096;-67
2023/08/25 03:02:43;;;;;;;28.98;19.83;;;19.00;99.90;;;;;;5002472;28;20045;-67
2023/08/25 03:05:09;;;;;;;30.27;18.88;;;19.00;99.90;;;;;;5018333;28;20038;-68
2023/08/25 03:07:35;;;;;;;26.33;18.88;;;19.00;99.90;;;;;;5003224;28;20046;-67
2023/08/25 03:10:02;;;;;;;28.17;20.42;;;18.90;99.90;;;;;;4967411;28;20042;-67
2023/08/25 03:12:28;;;;;;;28.95;19.50;;;18.90;99.90;;;;;;5020259;28;20051;-67
2023/08/25 03:14:54;;;;;;;31.48;20.02;;;18.80;99.90;;;;;;5024530;28;20045;-68
2023/08/25 03:17:21;;;;;;;34.67;21.35;;;18.80;99.90;;;;;;5004817;28;20764;-68
2023/08/25 03:19:47;;;;;;;31.67;20.55;;;18.80;99.90;;;;;;5038157;28;20511;-67
2023/08/25 03:22:13;;;;;;;30.63;20.63;;;18.70;99.90;;;;;;4991658;28;20117;-68
2023/08/25 03:24:39;;;;;;;30.15;20.73;;;18.70;99.90;;;;;;4990571;28;20199;-67
2023/08/25 03:27:04;;;;;;;33.53;19.65;;;18.70;99.90;;;;;;5039474;28;20050;-68
2023/08/25 03:29:31;;;;;;;28.90;20.95;;;18.70;99.90;;;;;;5005127;28;20095;-67
2023/08/25 03:32:00;;;;;;;30.30;21.58;;;18.70;99.90;;;;;;4996196;28;20053;-67
2023/08/25 03:34:26;;;;;;;33.95;22.13;;;18.70;99.90;;;;;;4999561;28;20039;-69
2023/08/25 03:36:52;;;;;;;32.83;22.48;;;18.70;99.90;;;;;;4995148;28;20034;-67
2023/08/25 03:39:18;;;;;;;33.35;21.38;;;18.70;99.90;;;;;;5019032;28;20046;-67
2023/08/25 03:41:45;;;;;;;35.75;22.35;;;18.60;99.90;;;;;;4992912;28;20046;-67
2023/08/25 03:44:10;;;;;;;33.47;22.40;;;18.60;99.90;;;;;;4990526;28;20046;-67
2023/08/25 03:46:36;;;;;;;35.00;22.42;;;18.60;99.90;;;;;;5033367;28;20038;-67
2023/08/25 03:49:02;;;;;;;38.80;24.10;;;18.60;99.90;;;;;;5020190;28;20483;-67
2023/08/25 03:51:28;;;;;;;36.38;23.63;;;18.60;99.90;;;;;;5023005;28;20396;-67
2023/08/25 03:53:53;;;;;;;38.28;24.05;;;18.50;99.90;;;;;;4990515;28;20471;-68
2023/08/25 03:56:19;;;;;;;37.92;26.20;;;18.50;99.90;;;;;;5007205;28;20050;-68
2023/08/25 03:58:48;;;;;;;44.35;24.90;;;18.50;99.90;;;;;;4973769;28;20365;-67
2023/08/25 04:01:13;;;;;;;38.92;25.08;;;18.60;99.90;;;;;;4993136;28;20038;-67
2023/08/25 04:03:39;;;;;;;39.75;25.92;;;18.50;99.90;;;;;;5010532;28;20496;-67
2023/08/25 04:06:06;;;;;;;43.83;25.90;;;18.50;99.90;;;;;;4991297;28;20034;-67
2023/08/25 04:08:32;;;;;;;40.13;25.67;;;18.50;99.90;;;;;;5000760;28;20381;-67
2023/08/25 04:10:58;;;;;;;42.13;25.77;;;18.50;99.90;;;;;;4994323;28;20567;-68
2023/08/25 04:13:24;;;;;;;37.85;24.52;;;18.50;99.90;;;;;;4999124;28;20206;-67
2023/08/25 04:15:57;;;;;;;39.88;26.63;;;18.50;99.90;;;;;;4996641;28;20124;-68
2023/08/25 04:18:23;;;;;;;44.13;25.42;;;18.40;99.90;;;;;;4994439;28;20038;-68
2023/08/25 04:20:49;;;;;;;43.22;25.88;;;18.40;99.90;;;;;;5001791;28;20034;-67
2023/08/25 04:23:15;;;;;;;43.35;26.80;;;18.40;99.90;;;;;;4990882;28;20172;-68
2023/08/25 04:25:41;;;;;;;46.33;27.88;;;18.40;99.90;;;;;;5035101;28;20042;-68
2023/08/25 04:28:07;;;;;;;48.70;28.45;;;18.40;99.90;;;;;;4995160;28;20049;-67
2023/08/25 04:30:32;;;;;;;46.83;28.52;;;18.40;99.90;;;;;;4988246;28;20030;-68
2023/08/25 04:32:58;;;;;;;52.28;28.55;;;18.40;99.90;;;;;;5004812;28;20088;-67
2023/08/25 04:35:24;;;;;;;52.15;29.58;;;18.40;99.90;;;;;;4983093;28;20089;-67
2023/08/25 04:37:50;;;;;;;52.08;29.50;;;18.40;99.90;;;;;;4996330;28;20037;-67
2023/08/25 04:40:17;;;;;;;54.97;30.13;;;18.40;99.90;;;;;;4994622;28;20487;-67
2023/08/25 04:42:43;;;;;;;54.35;30.88;;;18.50;99.90;;;;;;5005496;28;20044;-67
2023/08/25 04:45:10;;;;;;;55.63;30.23;;;18.40;99.90;;;;;;4997174;28;20039;-67
2023/08/25 04:47:37;;;;;;;52.92;30.50;;;18.50;99.90;;;;;;5020876;28;20061;-67
2023/08/25 04:50:03;;;;;;;53.20;29.35;;;18.40;99.90;;;;;;5030192;28;20090;-67
2023/08/25 04:52:34;;;;;;;56.10;29.95;;;18.50;99.90;;;;;;5009145;28;20471;-67
2023/08/25 04:55:00;;;;;;;52.25;29.05;;;18.50;99.90;;;;;;4995826;28;20073;-68
2023/08/25 04:57:26;;;;;;;51.60;28.20;;;18.50;99.90;;;;;;4994848;28;20058;-68
2023/08/25 04:59:52;;;;;;;56.22;30.50;;;18.50;99.90;;;;;;5007083;28;20104;-66
2023/08/25 05:02:17;;;;;;;53.83;28.27;;;18.40;99.90;;;;;;4997959;28;20123;-65
2023/08/25 05:04:43;;;;;;;51.08;29.67;;;18.40;99.90;;;;;;4993322;28;20030;-65
2023/08/25 05:07:09;;;;;;;52.67;28.67;;;18.40;99.90;;;;;;4992484;28;20038;-67
2023/08/25 05:09:35;;;;;;;46.88;27.80;;;18.40;99.90;;;;;;4998663;28;20403;-68
2023/08/25 05:12:00;;;;;;;51.28;30.40;;;18.40;99.90;;;;;;4996630;28;20088;-67
2023/08/25 05:14:26;;;;;;;55.55;31.13;;;18.40;99.90;;;;;;4972288;28;20074;-67
2023/08/25 05:16:52;;;;;;;54.08;30.60;;;18.40;99.90;;;;;;4997567;28;20488;-68
2023/08/25 05:19:18;;;;;;;60.03;31.40;;;18.40;99.90;;;;;;4986847;28;20035;-68
2023/08/25 05:21:43;;;;;;;66.63;33.63;;;18.40;99.90;;;;;;5026090;28;20086;-68
2023/08/25 05:24:20;;;;;;;62.58;32.65;;;18.40;99.90;;;;;;4994737;28;20043;-68
2023/08/25 05:26:53;;;;;;;64.32;33.70;;;18.40;99.90;;;;;;5002132;28;20029;-68
2023/08/25 05:29:26;;;;;;;61.05;31.10;;;18.40;99.90;;;;;;4997966;28;20038;-68
2023/08/25 05:31:53;;;;;;;67.15;33.92;;;18.50;99.90;;;;;;4989088;28;20038;-68
2023/08/25 05:34:19;;;;;;;68.90;34.70;;;18.50;99.90;;;;;;5000134;28;20108;-68
2023/08/25 05:36:45;;;;;;;63.05;33.50;;;18.50;99.90;;;;;;4990102;28;20137;-68
2023/08/25 05:39:14;;;;;;;66.72;33.28;;;18.50;99.90;;;;;;4993950;28;20484;-68
2023/08/25 05:41:40;;;;;;;58.85;32.70;;;18.50;99.90;;;;;;5021624;28;20037;-68
2023/08/25 05:44:05;;;;;;;61.38;33.85;;;18.50;99.90;;;;;;4985025;28;20385;-68
2023/08/25 05:46:31;;;;;;;63.53;35.22;;;18.60;99.90;;;;;;4988713;28;20430;-68
2023/08/25 05:48:58;;;;;;;61.65;34.85;;;18.60;99.90;;;;;;4999002;28;20065;-68
2023/08/25 05:51:24;;;;;;;55.03;32.00;;;18.60;99.90;;;;;;4986406;28;20054;-68
2023/08/25 05:53:50;;;;;;;62.28;33.50;;;18.70;99.90;;;;;;5009386;28;21603;-68
2023/08/25 05:56:16;;;;;;;61.00;33.83;;;18.70;99.90;;;;;;4998936;28;20077;-68
2023/08/25 05:58:42;;;;;;;58.20;33.30;;;18.70;99.90;;;;;;4993964;28;20525;-66
2023/08/25 06:01:08;;;;;;;59.90;35.30;;;18.80;99.90;;;;;;4993907;28;20049;-66
2023/08/25 06:03:34;;;;;;;62.80;35.20;;;18.80;99.90;;;;;;5006395;28;20506;-66
2023/08/25 06:06:00;;;;;;;62.65;33.38;;;18.80;99.90;;;;;;5001528;28;20121;-65
2023/08/25 06:08:26;;;;;;;59.15;33.85;;;18.80;99.90;;;;;;4989347;28;20180;-68
2023/08/25 06:10:52;;;;;;;58.38;34.25;;;18.90;99.90;;;;;;4991968;28;20037;-68
2023/08/25 06:13:18;;;;;;;54.95;32.40;;;19.00;99.90;;;;;;4984324;28;20045;-68
2023/08/25 06:15:44;;;;;;;52.55;30.42;;;18.90;99.90;;;;;;4997278;28;20411;-68
2023/08/25 06:18:10;;;;;;;57.72;32.08;;;18.90;99.90;;;;;;5018455;28;20038;-68
2023/08/25 06:20:39;;;;;;;59.10;32.50;;;19.00;99.90;;;;;;5027100;28;20498;-68
2023/08/25 06:23:04;;;;;;;58.10;31.63;;;19.00;99.90;;;;;;5037692;28;20046;-68
2023/08/25 06:25:30;;;;;;;51.47;30.95;;;19.10;99.90;;;;;;4991877;28;20045;-68
2023/08/25 06:27:56;;;;;;;56.58;31.73;;;19.10;99.90;;;;;;4994776;28;20046;-68
2023/08/25 06:30:23;;;;;;;52.30;32.25;;;19.10;99.90;;;;;;5016039;28;20539;-68
2023/08/25 06:32:49;;;;;;;54.40;33.05;;;19.10;99.90;;;;;;4991803;28;20044;-68
2023/08/25 06:35:15;;;;;;;56.25;32.65;;;19.10;99.90;;;;;;5007917;28;20041;-68
2023/08/25 06:37:41;;;;;;;55.63;31.25;;;19.10;99.90;;;;;;4992470;28;20050;-68
2023/08/25 06:40:10;;;;;;;55.60;31.98;;;19.10;99.90;;;;;;4993369;28;20057;-68
2023/08/25 06:42:37;;;;;;;55.90;31.73;;;19.20;99.90;;;;;;4991486;28;20464;-68
2023/08/25 06:45:09;;;;;;;53.38;31.15;;;19.20;99.90;;;;;;5001751;28;20046;-68
2023/08/25 06:47:35;;;;;;;50.28;31.30;;;19.20;99.90;;;;;;5002060;28;20586;-66
2023/08/25 06:50:05;;;;;;;55.92;30.85;;;19.20;99.90;;;;;;5022203;28;20043;-66
2023/08/25 06:52:32;;;;;;;56.53;32.17;;;19.20;99.90;;;;;;5013833;28;20065;-66
2023/08/25 06:54:58;;;;;;;51.65;31.27;;;19.20;99.90;;;;;;4996679;28;20482;-66
2023/08/25 06:57:24;;;;;;;53.92;32.15;;;19.20;99.90;;;;;;4970848;28;20049;-66
2023/08/25 06:59:50;;;;;;;54.13;32.42;;;19.20;99.90;;;;;;4993103;28;20069;-66
2023/08/25 07:02:16;;;;;;;52.15;31.60;;;19.30;99.90;;;;;;5001616;28;21843;-66
2023/08/25 07:04:42;;;;;;;52.08;30.02;;;19.40;99.90;;;;;;4986393;28;20452;-68
2023/08/25 07:07:08;;;;;;;52.67;31.30;;;19.40;99.90;;;;;;5005957;28;20070;-68
2023/08/25 07:09:35;;;;;;;46.47;30.88;;;19.50;99.90;;;;;;4983139;28;20041;-68
2023/08/25 07:12:03;;;;;;;49.15;29.95;;;19.60;99.90;;;;;;4990214;28;20070;-68
2023/08/25 07:14:31;;;;;;;51.55;30.48;;;19.70;99.90;;;;;;4999390;28;20038;-68
2023/08/25 07:16:57;;;;;;;53.70;32.20;;;19.70;99.90;;;;;;5005388;28;20034;-68
2023/08/25 07:19:23;;;;;;;49.72;30.88;;;19.70;99.90;;;;;;5008147;28;20056;-68
2023/08/25 07:21:48;;;;;;;45.53;30.40;;;19.80;99.90;;;;;;4992242;28;20038;-68
2023/08/25 07:24:14;;;;;;;48.63;30.50;;;19.80;99.90;;;;;;5006875;28;20145;-68
2023/08/25 07:26:40;;;;;;;46.90;29.92;;;19.80;99.90;;;;;;5025068;28;20069;-68
2023/08/25 07:29:06;;;;;;;44.97;29.75;;;19.90;99.90;;;;;;5003425;28;20044;-68
2023/08/25 07:31:31;;;;;;;45.00;30.58;;;19.90;99.90;;;;;;5044473;28;20459;-68
2023/08/25 07:33:57;;;;;;;44.08;29.98;;;20.00;99.90;;;;;;5001155;28;20045;-66
2023/08/25 07:36:24;;;;;;;47.45;29.98;;;20.00;99.90;;;;;;5043646;28;20070;-66
2023/08/25 07:38:50;;;;;;;46.20;28.88;;;20.00;99.90;;;;;;4994537;28;20038;-67
2023/08/25 07:41:20;;;;;;;41.72;27.17;;;20.00;99.90;;;;;;4997859;28;20093;-69
2023/08/25 07:43:46;;;;;;;44.30;29.95;;;20.10;99.90;;;;;;5038312;28;20044;-69
2023/08/25 07:46:12;;;;;;;43.13;29.20;;;20.20;99.90;;;;;;5002199;28;20042;-69
2023/08/25 07:48:38;;;;;;;41.90;28.17;;;20.20;99.90;;;;;;5012444;28;20053;-69
2023/08/25 07:51:04;;;;;;;40.38;27.58;;;20.20;99.90;;;;;;5022428;28;20038;-69
2023/08/25 07:53:31;;;;;;;44.22;28.63;;;20.30;99.90;;;;;;5000631;28;20045;-69
2023/08/25 07:55:58;;;;;;;43.67;28.77;;;20.30;99.90;;;;;;4993601;28;20081;-69
2023/08/25 07:58:24;;;;;;;40.95;27.98;;;20.30;99.90;;;;;;5002740;28;20037;-69
2023/08/25 08:00:50;;;;;;;39.00;27.48;;;20.20;99.90;;;;;;4998678;28;20676;-69
2023/08/25 08:03:15;;;;;;;47.78;29.08;;;20.20;99.90;;;;;;5008849;28;20093;-69
2023/08/25 08:05:42;;;;;;;42.92;26.85;;;20.20;99.90;;;;;;4995462;28;20049;-69
2023/08/25 08:08:09;;;;;;;43.28;27.88;;;20.20;99.90;;;;;;4991693;28;20117;-69
2023/08/25 08:10:36;;;;;;;41.00;27.80;;;20.20;99.90;;;;;;5023828;28;20450;-69
2023/08/25 08:13:03;;;;;;;42.03;27.30;;;20.20;99.90;;;;;;5000620;28;20043;-69
2023/08/25 08:15:30;;;;;;;42.05;26.25;;;20.30;99.90;;;;;;4993359;28;20049;-69
2023/08/25 08:17:56;;;;;;;35.20;25.70;;;20.40;99.90;;;;;;5025723;28;20558;-69
2023/08/25 08:20:23;;;;;;;41.72;26.30;;;20.40;99.90;;;;;;5001952;28;20046;-69
2023/08/25 08:22:49;;;;;;;37.65;25.85;;;20.60;99.90;;;;;;4998714;28;20073;-69
2023/08/25 08:25:14;;;;;;;39.67;25.58;;;20.60;99.90;;;;;;4996247;28;20076;-69
2023/08/25 08:27:41;;;;;;;39.42;27.85;;;20.60;99.90;;;;;;5010325;28;20864;-69
2023/08/25 08:30:11;;;;;;;40.15;25.75;;;20.80;99.90;;;;;;5022449;28;20088;-69
2023/08/25 08:32:38;;;;;;;38.75;26.38;;;20.60;99.90;;;;;;5029113;28;20041;-69
2023/08/25 08:35:08;;;;;;;41.85;26.80;;;20.60;99.90;;;;;;4989282;28;20037;-69
2023/08/25 08:37:38;;;;;;;39.72;26.83;;;20.60;99.90;;;;;;5022008;28;20120;-69
2023/08/25 08:40:05;;;;;;;37.42;25.90;;;20.70;99.90;;;;;;5007710;28;20045;-69
2023/08/25 08:42:33;;;;;;;39.20;25.55;;;20.70;99.90;;;;;;5006884;28;20052;-69
2023/08/25 08:45:03;;;;;;;35.38;25.13;;;20.70;99.90;;;;;;4991108;28;20392;-69
2023/08/25 08:47:31;;;;;;;41.70;26.02;;;20.70;99.90;;;;;;4990547;28;20038;-69
2023/08/25 08:49:58;;;;;;;33.10;24.73;;;20.70;99.90;;;;;;4994132;28;20162;-72
2023/08/25 08:52:25;;;;;;;32.97;23.23;;;20.70;99.90;;;;;;4997739;28;20048;-72
2023/08/25 08:54:51;;;;;;;35.33;22.98;;;20.70;99.90;;;;;;5002991;28;20033;-72
2023/08/25 08:57:17;;;;;;;39.30;24.30;;;20.70;99.90;;;;;;5008943;28;20060;-72
2023/08/25 08:59:43;;;;;;;34.03;23.27;;;20.70;99.90;;;;;;5004234;28;20459;-72
2023/08/25 09:02:13;;;;;;;31.90;23.88;;;20.80;99.90;;;;;;5004708;28;20483;-72
2023/08/25 09:04:40;;;;;;;29.13;21.15;;;20.80;99.90;;;;;;5000477;28;20034;-72
2023/08/25 09:07:08;;;;;;;31.98;22.45;;;20.80;99.90;;;;;;4992206;28;20037;-68
2023/08/25 09:09:34;;;;;;;38.00;23.50;;;20.90;99.90;;;;;;5008110;28;20045;-68
2023/08/25 09:12:00;;;;;;;29.70;21.58;;;20.90;99.90;;;;;;5008260;28;20044;-68
2023/08/25 09:14:27;;;;;;;32.03;22.45;;;20.90;99.90;;;;;;5004440;28;20034;-68
2023/08/25 09:16:59;;;;;;;35.97;24.42;;;20.90;99.90;;;;;;5007871;28;20041;-67
2023/08/25 09:19:28;;;;;;;34.67;25.70;;;21.00;99.90;;;;;;5008280;28;20049;-66
2023/08/25 09:21:53;;;;;;;36.78;25.08;;;21.00;99.90;;;;;;5007699;28;20307;-66
2023/08/25 09:24:21;;;;;;;35.92;24.38;;;21.00;99.90;;;;;;5009287;28;20038;-66
2023/08/25 09:26:48;;;;;;;37.00;24.85;;;21.00;99.90;;;;;;5038991;28;20046;-66
2023/08/25 09:29:14;;;;;;;37.65;26.27;;;21.00;99.90;;;;;;5004704;28;20474;-66
2023/08/25 09:31:41;;;;;;;37.22;25.30;;;21.00;99.90;;;;;;5006493;28;20840;-66
2023/08/25 09:34:09;;;;;;;45.00;24.98;;;21.00;99.90;;;;;;5007102;28;20037;-66
2023/08/25 09:36:48;;;;;;;37.15;25.58;;;21.00;99.90;;;;;;5022608;28;20038;-66
2023/08/25 09:39:14;;;;;;;39.58;25.70;;;21.00;99.90;;;;;;4996627;28;21037;-68
2023/08/25 09:41:42;;;;;;;41.42;26.15;;;21.00;99.90;;;;;;5013002;28;21212;-68
2023/08/25 09:44:08;;;;;;;41.85;26.75;;;21.00;99.90;;;;;;4996369;28;20045;-68
2023/08/25 09:46:34;;;;;;;41.83;27.85;;;21.00;99.90;;;;;;5042602;28;20657;-68
2023/08/25 09:49:08;;;;;;;41.28;25.92;;;21.00;99.90;;;;;;4999798;28;20073;-68
2023/08/25 09:51:39;;;;;;;45.97;27.20;;;21.00;99.90;;;;;;5007843;28;20050;-68
2023/08/25 09:54:09;;;;;;;40.93;26.97;;;21.00;99.90;;;;;;5014345;28;20044;-68
2023/08/25 09:56:36;;;;;;;40.38;26.55;;;21.00;99.90;;;;;;5008840;28;20115;-68
2023/08/25 09:59:06;;;;;;;39.88;26.95;;;21.00;99.90;;;;;;5006653;28;20103;-68
2023/08/25 10:01:34;;;;;;;42.90;26.67;;;20.90;99.90;;;;;;4998684;28;20039;-68
2023/08/25 10:04:03;;;;;;;45.72;28.13;;;20.90;99.90;;;;;;5015612;28;20045;-68
2023/08/25 10:06:31;;;;;;;44.47;28.80;;;20.90;99.90;;;;;;4991255;28;20487;-68
2023/08/25 10:08:58;;;;;;;41.42;27.52;;;20.90;99.90;;;;;;4996255;28;20082;-68
2023/08/25 10:11:28;;;;;;;42.35;28.15;;;20.80;99.90;;;;;;5028417;28;20038;-67
2023/08/25 10:13:55;;;;;;;42.35;27.38;;;20.70;99.90;;;;;;5029356;28;20034;-68
2023/08/25 10:16:24;;;;;;;47.38;27.63;;;20.70;99.90;;;;;;5027944;28;20037;-67
2023/08/25 10:18:50;;;;;;;57.85;29.67;;;20.70;99.90;;;;;;4983295;28;20431;-66
2023/08/25 10:21:19;;;;;;;51.08;29.45;;;20.60;99.90;;;;;;4996588;28;20666;-67
2023/08/25 10:23:46;;;;;;;54.17;30.30;;;20.60;99.90;;;;;;5000216;28;20133;-68
2023/08/25 10:26:12;;;;;;;52.45;29.52;;;20.60;99.90;;;;;;5000925;28;20050;-67
2023/08/25 10:28:38;;;;;;;51.50;29.65;;;20.60;99.90;;;;;;4980424;28;20053;-67
2023/08/25 10:31:05;;;;;;;43.53;26.95;;;20.70;99.90;;;;;;4993421;28;20046;-67
2023/08/25 10:33:47;;;;;;;33.78;23.60;;;20.70;99.90;;;;;;4994049;28;20107;-68
2023/08/25 10:36:18;;;;;;;19.67;14.02;;;20.80;99.90;;;;;;4995857;28;20076;-68
2023/08/25 10:38:54;;;;;;;15.85;10.75;;;20.80;99.90;;;;;;4997368;28;20519;-68
2023/08/25 10:41:21;;;;;;;16.52;11.68;;;20.70;99.90;;;;;;5009694;28;20049;-67
2023/08/25 10:43:56;;;;;;;21.70;14.77;;;20.70;99.90;;;;;;4991136;28;21122;-68
2023/08/25 10:46:24;;;;;;;28.23;17.95;;;20.70;99.90;;;;;;4994195;28;20172;-68
2023/08/25 10:49:06;;;;;;;32.78;19.42;;;20.70;99.90;;;;;;4994904;28;20668;-68
2023/08/25 10:51:33;;;;;;;33.50;21.15;;;20.70;99.90;;;;;;4981016;28;20554;-68
2023/08/25 10:53:59;;;;;;;38.13;22.92;;;20.70;99.90;;;;;;5014354;28;20492;-68
2023/08/25 10:56:26;;;;;;;37.92;24.70;;;20.70;99.90;;;;;;4989762;28;20495;-68
2023/08/25 10:59:06;;;;;;;44.92;27.80;;;20.80;99.90;;;;;;5012280;28;20070;-67
2023/08/25 11:01:38;;;;;;;49.10;27.90;;;21.10;99.90;;;;;;5001042;28;20045;-65
2023/08/25 11:04:12;;;;;;;33.65;23.08;;;21.50;99.90;;;;;;5025649;28;20049;-65
2023/08/25 11:06:49;;;;;;;37.30;24.02;;;21.60;99.90;;;;;;5020048;28;20049;-65
2023/08/25 11:09:18;;;;;;;29.23;21.20;;;21.70;99.90;;;;;;5012087;28;20041;-65
2023/08/25 11:11:47;;;;;;;30.92;20.70;;;21.70;99.90;;;;;;5012134;28;20068;-65
2023/08/25 11:14:14;;;;;;;26.20;19.98;;;21.70;99.90;;;;;;5023612;28;20403;-65
2023/08/25 11:16:41;;;;;;;28.08;18.85;;;21.70;99.90;;;;;;5004804;28;20050;-65
2023/08/25 11:19:10;;;;;;;23.73;17.73;;;21.60;99.90;;;;;;4989084;28;20031;-65
2023/08/25 11:21:36;;;;;;;27.52;19.02;;;21.60;99.90;;;;;;5016590;28;20121;-66
2023/08/25 11:24:02;;;;;;;25.73;18.73;;;21.60;99.90;;;;;;5003968;28;20042;-65
2023/08/25 11:26:30;;;;;;;29.15;18.70;;;21.60;99.90;;;;;;4993804;28;20038;-66
2023/08/25 11:28:56;;;;;;;31.42;22.38;;;21.50;99.90;;;;;;5017142;28;20645;-65
2023/08/25 11:31:23;;;;;;;35.28;24.13;;;21.50;99.90;;;;;;5004704;28;20127;-65
2023/08/25 11:33:52;;;;;;;31.75;22.75;;;21.50;99.90;;;;;;5000875;28;20041;-66
2023/08/25 11:36:22;;;;;;;33.38;23.08;;;21.50;99.90;;;;;;5008253;28;20037;-65
2023/08/25 11:38:50;;;;;;;34.88;21.90;;;21.50;99.90;;;;;;4999833;28;20038;-65
2023/08/25 11:41:16;;;;;;;26.95;19.98;;;21.40;99.90;;;;;;4986807;28;20057;-65
2023/08/25 11:43:45;;;;;;;31.02;20.98;;;21.40;99.90;;;;;;4999629;28;20042;-66
2023/08/25 11:46:12;;;;;;;22.52;15.63;;;21.40;99.90;;;;;;5007388;28;20523;-65
2023/08/25 11:48:38;;;;;;;19.00;14.07;;;21.30;99.90;;;;;;5000001;28;20483;-65
2023/08/25 11:51:04;;;;;;;21.95;14.43;;;21.20;99.90;;;;;;5003676;28;20096;-65
2023/08/25 11:53:30;;;;;;;20.63;14.32;;;21.20;99.90;;;;;;5008702;28;20064;-65
2023/08/25 11:56:06;;;;;;;15.52;11.40;;;21.20;99.90;;;;;;5012825;28;20049;-65
2023/08/25 11:58:36;;;;;;;12.32;9.30;;;21.10;99.90;;;;;;5005523;28;20049;-67
2023/08/25 12:01:11;;;;;;;10.25;6.93;;;21.10;99.90;;;;;;4993404;28;20495;-68
2023/08/25 12:03:38;;;;;;;11.05;7.40;;;21.00;99.90;;;;;;5018389;28;20503;-67
2023/08/25 12:06:08;;;;;;;11.20;6.63;;;20.90;99.90;;;;;;5005483;28;20053;-67
2023/08/25 12:08:34;;;;;;;7.60;6.80;;;20.90;99.90;;;;;;5004363;28;20491;-68
2023/08/25 12:11:01;;;;;;;7.57;5.85;;;20.80;99.90;;;;;;5000033;28;20073;-67
2023/08/25 12:13:30;;;;;;;9.02;6.65;;;20.80;99.90;;;;;;4995831;28;20046;-68
2023/08/25 12:15:57;;;;;;;10.18;6.38;;;20.80;99.90;;;;;;5001675;28;20037;-68
2023/08/25 12:18:23;;;;;;;7.90;5.88;;;20.80;99.90;;;;;;5028270;28;20389;-67
2023/08/25 12:20:50;;;;;;;6.28;4.97;;;20.80;99.90;;;;;;4999171;28;20034;-68
2023/08/25 12:23:16;;;;;;;7.15;5.60;;;20.90;99.90;;;;;;4993877;28;20121;-68
2023/08/25 12:25:43;;;;;;;10.57;5.65;;;21.00;99.90;;;;;;5030694;28;20514;-66
2023/08/25 12:28:10;;;;;;;7.57;5.07;;;21.00;99.90;;;;;;5003016;28;20093;-66